Time;durP1;ratioP1;P1;durP2;ratioP2;P2;SDS_P1;SDS_P2;PMS_P1;PMS_P2;Temp;Humidity;BMP_temperature;BMP_pressure;BME280_temperature;BME280_humidity;BME280_pressure;Samples;Min_cycle;Max_cycle;Signal;HPM_P1;HPM_P2
2022/01/11 00:01:09;;;;;;;42.10;18.40;;;;;;;;;;5042086;28;20204;-60
2022/01/11 00:03:37;;;;;;;87.50;17.70;;;;;;;;;;5031735;28;20311;-60
2022/01/11 00:06:17;;;;;;;66.57;22.33;;;;;;;;;;5032227;28;20220;-60
2022/01/11 00:08:45;;;;;;;52.93;18.57;;;;;;;;;;5032190;28;20618;-60
2022/01/11 00:11:10;;;;;;;39.30;16.77;;;;;;;;;;5031552;28;20215;-60
2022/01/11 00:13:36;;;;;;;57.83;18.07;;;;;;;;;;5032712;28;20204;-60
2022/01/11 00:16:02;;;;;;;39.00;18.77;;;;;;;;;;5031744;28;20270;-60
2022/01/11 00:18:27;;;;;;;51.67;17.60;;;;;;;;;;5002316;28;20216;-60
2022/01/11 00:20:53;;;;;;;42.63;18.80;;;;;;;;;;5012822;28;20595;-60
2022/01/11 00:25:45;;;;;;;247.90;23.33;;;;;;;;;;5011693;28;20295;-60
2022/01/11 00:28:10;;;;;;;34.73;16.73;;;;;;;;;;5011868;28;20232;-60
2022/01/11 00:30:38;;;;;;;33.77;17.47;;;;;;;;;;4995291;28;20208;-60
2022/01/11 00:33:07;;;;;;;44.23;19.10;;;;;;;;;;5011422;28;20304;-60
2022/01/11 00:35:41;;;;;;;41.83;17.93;;;;;;;;;;4995474;28;20215;-60
2022/01/11 00:38:06;;;;;;;60.07;18.87;;;;;;;;;;4994811;28;20278;-59
2022/01/11 00:40:32;;;;;;;186.33;22.47;;;;;;;;;;5012401;28;20292;-60
2022/01/11 00:42:59;;;;;;;41.50;17.07;;;;;;;;;;5012407;28;20234;-60
2022/01/11 00:45:25;;;;;;;63.87;20.07;;;;;;;;;;5014694;28;20724;-60
2022/01/11 00:47:50;;;;;;;281.07;25.87;;;;;;;;;;5016324;28;20568;-60
2022/01/11 00:50:15;;;;;;;132.77;21.73;;;;;;;;;;4998318;28;20228;-60
2022/01/11 00:52:41;;;;;;;164.00;22.53;;;;;;;;;;5015422;28;20242;-60
2022/01/11 00:55:06;;;;;;;72.43;21.00;;;;;;;;;;5015645;28;20239;-60
2022/01/11 00:57:32;;;;;;;53.33;20.70;;;;;;;;;;4998801;28;20577;-60
2022/01/11 00:59:58;;;;;;;81.60;20.63;;;;;;;;;;5015276;28;20243;-60
2022/01/11 01:02:23;;;;;;;43.57;20.40;;;;;;;;;;5015577;28;20213;-60
2022/01/11 01:04:49;;;;;;;51.77;20.67;;;;;;;;;;5016191;28;20209;-60
2022/01/11 01:07:14;;;;;;;286.60;26.37;;;;;;;;;;5014704;28;20216;-60
2022/01/11 01:09:59;;;;;;;190.60;23.70;;;;;;;;;;4998659;28;20255;-60
2022/01/11 01:12:25;;;;;;;45.57;19.93;;;;;;;;;;5015379;28;20727;-60
2022/01/11 01:14:50;;;;;;;55.83;20.27;;;;;;;;;;4997885;28;20304;-61
2022/01/11 01:17:15;;;;;;;37.43;17.83;;;;;;;;;;5015469;28;20589;-60
2022/01/11 01:19:40;;;;;;;60.97;19.33;;;;;;;;;;5015932;28;20204;-60
2022/01/11 01:22:06;;;;;;;44.27;16.53;;;;;;;;;;5014509;28;20581;-60
2022/01/11 01:24:31;;;;;;;56.70;18.83;;;;;;;;;;5016047;28;20216;-60
2022/01/11 01:26:56;;;;;;;53.40;17.83;;;;;;;;;;5015706;28;20217;-60
2022/01/11 01:29:22;;;;;;;65.13;18.60;;;;;;;;;;4996602;28;20263;-60
2022/01/11 01:31:47;;;;;;;73.90;20.40;;;;;;;;;;4998087;28;20338;-60
2022/01/11 01:34:12;;;;;;;68.40;20.93;;;;;;;;;;4997633;28;20684;-60
2022/01/11 01:36:37;;;;;;;50.43;19.83;;;;;;;;;;4997341;28;20215;-60
2022/01/11 01:39:03;;;;;;;49.63;20.90;;;;;;;;;;4997593;28;20592;-60
2022/01/11 01:41:28;;;;;;;63.70;20.37;;;;;;;;;;5014347;28;20216;-60
2022/01/11 01:43:55;;;;;;;50.57;21.47;;;;;;;;;;5015446;28;20205;-60
2022/01/11 01:46:20;;;;;;;70.20;22.97;;;;;;;;;;5034762;28;20259;-60
2022/01/11 01:48:46;;;;;;;67.50;22.53;;;;;;;;;;5034268;28;20231;-60
2022/01/11 01:51:12;;;;;;;63.90;23.07;;;;;;;;;;5034352;28;20295;-60
2022/01/11 01:53:38;;;;;;;56.83;22.70;;;;;;;;;;5034205;28;20212;-60
2022/01/11 01:56:03;;;;;;;56.40;21.47;;;;;;;;;;5032154;28;20208;-60
2022/01/11 01:58:29;;;;;;;87.43;22.00;;;;;;;;;;5034820;28;20227;-60
2022/01/11 02:00:55;;;;;;;74.53;17.70;;;;;;;;;;5034935;28;20204;-60
2022/01/11 02:03:26;;;;;;;94.20;19.00;;;;;;;;;;5033573;28;20290;-60
2022/01/11 02:05:51;;;;;;;61.53;18.93;;;;;;;;;;5034902;28;20203;-60
2022/01/11 02:08:17;;;;;;;67.37;17.97;;;;;;;;;;5033013;28;20228;-60
2022/01/11 02:10:42;;;;;;;86.37;17.67;;;;;;;;;;5032743;28;20215;-60
2022/01/11 02:13:08;;;;;;;48.30;18.13;;;;;;;;;;5034062;28;20199;-60
2022/01/11 02:15:33;;;;;;;55.83;20.40;;;;;;;;;;5034597;28;20291;-59
2022/01/11 02:18:06;;;;;;;89.37;21.23;;;;;;;;;;5012699;28;20288;-59
2022/01/11 02:20:31;;;;;;;60.97;19.87;;;;;;;;;;5014569;28;20209;-60
2022/01/11 02:22:56;;;;;;;61.83;20.37;;;;;;;;;;5025276;28;20203;-59
2022/01/11 02:25:22;;;;;;;47.43;19.83;;;;;;;;;;5032011;28;20291;-60
2022/01/11 02:27:47;;;;;;;74.63;19.90;;;;;;;;;;5034198;28;20718;-60
2022/01/11 02:30:12;;;;;;;62.67;20.63;;;;;;;;;;5034016;28;20208;-60
2022/01/11 02:32:47;;;;;;;80.63;20.90;;;;;;;;;;5033398;28;20204;-59
2022/01/11 02:35:12;;;;;;;240.77;26.23;;;;;;;;;;5033898;28;20211;-59
2022/01/11 02:37:40;;;;;;;62.93;19.10;;;;;;;;;;5033460;28;20621;-59
2022/01/11 02:40:06;;;;;;;83.37;21.03;;;;;;;;;;5032404;28;20294;-60
2022/01/11 02:42:32;;;;;;;262.20;25.27;;;;;;;;;;5033864;28;20207;-59
2022/01/11 02:44:57;;;;;;;81.10;20.03;;;;;;;;;;5026735;28;20693;-60
2022/01/11 02:47:22;;;;;;;51.83;16.50;;;;;;;;;;5033453;28;20215;-59
2022/01/11 02:49:47;;;;;;;37.70;16.80;;;;;;;;;;5034006;28;20303;-59
2022/01/11 02:52:13;;;;;;;48.00;17.57;;;;;;;;;;5032539;28;20207;-59
2022/01/11 02:54:38;;;;;;;47.03;17.47;;;;;;;;;;5033852;28;20200;-59
2022/01/11 02:57:03;;;;;;;157.20;22.33;;;;;;;;;;5033239;28;20222;-59
2022/01/11 02:59:28;;;;;;;63.47;20.87;;;;;;;;;;5032853;28;20207;-60
2022/01/11 03:01:54;;;;;;;51.63;19.97;;;;;;;;;;5017673;28;20208;-60
2022/01/11 03:04:19;;;;;;;65.00;20.13;;;;;;;;;;5013462;28;20247;-59
2022/01/11 03:06:45;;;;;;;92.90;22.27;;;;;;;;;;5012584;28;20211;-59
2022/01/11 03:09:10;;;;;;;68.40;19.43;;;;;;;;;;5013560;28;20224;-60
2022/01/11 03:11:36;;;;;;;117.97;20.27;;;;;;;;;;4996314;28;20262;-59
2022/01/11 03:14:01;;;;;;;85.40;20.43;;;;;;;;;;5012234;28;20585;-59
2022/01/11 03:16:27;;;;;;;47.17;19.33;;;;;;;;;;5013549;28;20219;-59
2022/01/11 03:18:52;;;;;;;55.47;20.47;;;;;;;;;;4995908;28;20213;-59
2022/01/11 03:21:17;;;;;;;57.30;21.27;;;;;;;;;;5012562;28;20201;-59
2022/01/11 03:23:43;;;;;;;52.27;20.60;;;;;;;;;;4995642;28;20216;-59
2022/01/11 03:26:08;;;;;;;61.90;21.47;;;;;;;;;;4995535;28;20236;-59
2022/01/11 03:28:33;;;;;;;80.80;20.60;;;;;;;;;;5012372;28;20290;-59
2022/01/11 03:31:00;;;;;;;38.60;17.77;;;;;;;;;;5013426;28;20204;-59
2022/01/11 03:33:25;;;;;;;75.87;21.83;;;;;;;;;;4979256;28;20204;-59
2022/01/11 03:35:51;;;;;;;41.33;20.50;;;;;;;;;;5012880;28;20267;-59
2022/01/11 03:38:16;;;;;;;43.63;20.00;;;;;;;;;;5012578;28;20247;-59
2022/01/11 03:40:42;;;;;;;49.33;20.60;;;;;;;;;;5013279;28;20316;-59
2022/01/11 03:43:07;;;;;;;41.63;19.13;;;;;;;;;;5011528;28;20251;-60
2022/01/11 03:45:33;;;;;;;39.17;18.27;;;;;;;;;;5026311;28;20220;-59
2022/01/11 03:47:58;;;;;;;51.47;21.30;;;;;;;;;;5031979;28;20216;-59
2022/01/11 03:50:24;;;;;;;71.10;23.77;;;;;;;;;;5032281;28;20222;-59
2022/01/11 03:52:59;;;;;;;41.73;21.10;;;;;;;;;;5032733;28;20257;-59
2022/01/11 03:55:43;;;;;;;39.33;20.30;;;;;;;;;;5031465;28;20734;-60
2022/01/11 03:58:09;;;;;;;46.67;20.77;;;;;;;;;;5032144;28;20204;-59
2022/01/11 04:00:34;;;;;;;42.00;21.70;;;;;;;;;;5014980;28;20330;-59
2022/01/11 04:02:59;;;;;;;70.23;23.00;;;;;;;;;;5014271;28;20242;-59
2022/01/11 04:05:25;;;;;;;38.20;20.30;;;;;;;;;;5032010;28;20713;-59
2022/01/11 04:07:50;;;;;;;36.10;19.10;;;;;;;;;;5032726;28;20256;-59
2022/01/11 04:10:15;;;;;;;43.03;21.97;;;;;;;;;;5031380;28;20237;-59
2022/01/11 04:12:41;;;;;;;40.83;19.90;;;;;;;;;;5032511;28;20223;-59
2022/01/11 04:15:06;;;;;;;64.87;20.77;;;;;;;;;;5031725;28;20261;-59
2022/01/11 04:17:31;;;;;;;34.43;18.63;;;;;;;;;;5015247;28;20216;-59
2022/01/11 04:19:56;;;;;;;78.13;23.60;;;;;;;;;;5012361;28;20622;-59
2022/01/11 04:22:22;;;;;;;40.53;21.27;;;;;;;;;;5019531;28;20215;-59
2022/01/11 04:24:47;;;;;;;46.90;20.63;;;;;;;;;;5031663;28;20671;-59
2022/01/11 04:27:12;;;;;;;39.90;20.10;;;;;;;;;;5031839;28;20203;-59
2022/01/11 04:29:38;;;;;;;44.23;21.20;;;;;;;;;;5014558;28;20574;-60
2022/01/11 04:32:03;;;;;;;43.47;21.20;;;;;;;;;;5030968;28;20216;-59
2022/01/11 04:34:28;;;;;;;43.27;20.17;;;;;;;;;;5014760;28;20203;-59
2022/01/11 04:36:54;;;;;;;46.23;22.53;;;;;;;;;;5032510;28;20211;-58
2022/01/11 04:39:19;;;;;;;52.50;24.20;;;;;;;;;;5030291;28;20306;-58
2022/01/11 04:41:44;;;;;;;50.83;23.93;;;;;;;;;;5032093;28;20207;-58
2022/01/11 04:44:10;;;;;;;40.33;22.23;;;;;;;;;;5033407;28;20215;-58
2022/01/11 04:46:35;;;;;;;42.93;22.80;;;;;;;;;;5051442;28;20211;-58
2022/01/11 04:49:00;;;;;;;40.67;21.83;;;;;;;;;;5051419;28;20227;-59
2022/01/11 04:51:26;;;;;;;44.40;23.50;;;;;;;;;;5051169;28;20322;-58
2022/01/11 04:53:51;;;;;;;37.63;21.03;;;;;;;;;;5051712;28;20207;-58
2022/01/11 04:56:16;;;;;;;34.37;19.30;;;;;;;;;;5051452;28;20219;-58
2022/01/11 04:58:42;;;;;;;37.53;21.17;;;;;;;;;;5051286;28;20211;-58
2022/01/11 05:01:07;;;;;;;40.60;22.30;;;;;;;;;;5023706;28;20222;-58
2022/01/11 05:03:33;;;;;;;36.40;20.70;;;;;;;;;;5032266;28;20262;-58
2022/01/11 05:05:58;;;;;;;43.00;23.13;;;;;;;;;;5031288;28;20295;-58
2022/01/11 05:08:23;;;;;;;41.77;23.40;;;;;;;;;;5031683;28;20247;-58
2022/01/11 05:10:48;;;;;;;38.77;22.03;;;;;;;;;;5031791;28;20215;-58
2022/01/11 05:13:14;;;;;;;38.47;22.40;;;;;;;;;;5030678;28;20582;-59
2022/01/11 05:15:39;;;;;;;37.37;21.00;;;;;;;;;;5013800;28;20208;-58
2022/01/11 05:18:05;;;;;;;42.67;23.73;;;;;;;;;;5031427;28;20237;-59
2022/01/11 05:20:31;;;;;;;45.00;23.97;;;;;;;;;;5031272;28;20243;-58
2022/01/11 05:22:56;;;;;;;41.57;23.50;;;;;;;;;;5019986;28;20248;-59
2022/01/11 05:25:21;;;;;;;40.77;22.63;;;;;;;;;;5011576;28;20671;-59
2022/01/11 05:27:47;;;;;;;43.03;23.00;;;;;;;;;;5011124;28;20324;-58
2022/01/11 05:30:12;;;;;;;42.03;23.47;;;;;;;;;;4996240;28;20223;-59
2022/01/11 05:32:38;;;;;;;41.90;21.93;;;;;;;;;;4997983;28;20243;-59
2022/01/11 05:35:03;;;;;;;37.03;19.60;;;;;;;;;;5014420;28;20212;-59
2022/01/11 05:37:29;;;;;;;38.60;21.00;;;;;;;;;;4998090;28;20200;-59
2022/01/11 05:39:54;;;;;;;37.20;20.07;;;;;;;;;;5015869;28;20218;-59
2022/01/11 05:42:19;;;;;;;37.47;20.63;;;;;;;;;;5014114;28;20473;-59
2022/01/11 05:44:45;;;;;;;32.20;19.40;;;;;;;;;;5015209;28;20704;-59
2022/01/11 05:47:10;;;;;;;29.27;18.53;;;;;;;;;;5014686;28;20251;-59
2022/01/11 05:49:35;;;;;;;30.77;18.83;;;;;;;;;;5014438;28;20254;-59
2022/01/11 05:52:01;;;;;;;31.60;18.13;;;;;;;;;;5014715;28;20216;-59
2022/01/11 05:54:26;;;;;;;33.50;19.17;;;;;;;;;;5015397;28;20216;-60
2022/01/11 05:56:51;;;;;;;34.83;19.10;;;;;;;;;;5014352;28;20258;-60
2022/01/11 05:59:17;;;;;;;45.53;23.43;;;;;;;;;;5014808;28;20223;-59
2022/01/11 06:01:42;;;;;;;43.13;24.27;;;;;;;;;;5000143;28;20582;-59
2022/01/11 06:04:07;;;;;;;40.80;23.50;;;;;;;;;;4995357;28;20213;-59
2022/01/11 06:06:32;;;;;;;44.50;25.20;;;;;;;;;;4995607;28;20216;-60
2022/01/11 06:09:00;;;;;;;47.83;24.63;;;;;;;;;;4994793;28;20229;-59
2022/01/11 06:11:26;;;;;;;45.50;24.83;;;;;;;;;;4978039;28;20214;-60
2022/01/11 06:13:51;;;;;;;41.83;23.03;;;;;;;;;;4995361;28;20634;-60
2022/01/11 06:16:17;;;;;;;38.73;23.27;;;;;;;;;;5001687;28;20213;-61
2022/01/11 06:18:43;;;;;;;37.93;22.23;;;;;;;;;;5034631;28;20212;-60
2022/01/11 06:21:09;;;;;;;51.83;25.97;;;;;;;;;;5033968;28;20253;-60
2022/01/11 06:23:34;;;;;;;44.60;25.20;;;;;;;;;;5016408;28;20284;-60
2022/01/11 06:25:59;;;;;;;44.27;25.07;;;;;;;;;;5014567;28;20208;-60
2022/01/11 06:28:25;;;;;;;46.00;25.07;;;;;;;;;;5013898;28;20216;-60
2022/01/11 06:30:50;;;;;;;47.27;25.77;;;;;;;;;;5013709;28;20668;-60
2022/01/11 06:33:15;;;;;;;46.97;24.97;;;;;;;;;;5013837;28;20695;-60
2022/01/11 06:35:40;;;;;;;48.50;25.43;;;;;;;;;;5014536;28;20212;-60
2022/01/11 06:38:06;;;;;;;49.83;26.57;;;;;;;;;;4995553;28;20625;-60
2022/01/11 06:40:31;;;;;;;50.33;31.70;;;;;;;;;;5013740;28;20200;-60
2022/01/11 06:42:56;;;;;;;47.53;25.63;;;;;;;;;;5013617;28;20641;-60
2022/01/11 06:45:22;;;;;;;47.73;25.80;;;;;;;;;;5012840;28;20278;-60
2022/01/11 06:47:47;;;;;;;48.73;27.17;;;;;;;;;;5013786;28;20636;-60
2022/01/11 06:50:13;;;;;;;42.00;24.67;;;;;;;;;;5013885;28;20228;-60
2022/01/11 06:52:38;;;;;;;41.57;24.33;;;;;;;;;;5013176;28;20678;-60
2022/01/11 06:55:04;;;;;;;42.87;24.27;;;;;;;;;;5013324;28;20236;-60
2022/01/11 06:57:29;;;;;;;40.33;23.10;;;;;;;;;;4996596;28;20209;-60
2022/01/11 06:59:55;;;;;;;43.67;21.77;;;;;;;;;;5013265;28;20299;-60
2022/01/11 07:02:20;;;;;;;39.60;21.80;;;;;;;;;;4994430;28;20695;-60
2022/01/11 07:04:45;;;;;;;35.33;19.33;;;;;;;;;;4989461;28;20339;-60
2022/01/11 07:07:10;;;;;;;33.80;19.13;;;;;;;;;;5013434;28;20266;-60
2022/01/11 07:09:36;;;;;;;34.43;19.03;;;;;;;;;;5013560;28;20239;-60
2022/01/11 07:12:01;;;;;;;32.33;18.57;;;;;;;;;;5012596;28;20201;-60
2022/01/11 07:14:26;;;;;;;36.23;19.77;;;;;;;;;;5013706;28;20204;-62
2022/01/11 07:16:52;;;;;;;37.10;19.83;;;;;;;;;;4999614;28;20223;-61
2022/01/11 07:19:17;;;;;;;39.20;20.70;;;;;;;;;;5030668;28;20586;-60
2022/01/11 07:21:44;;;;;;;41.33;21.63;;;;;;;;;;5031529;28;20576;-60
2022/01/11 07:24:10;;;;;;;35.73;20.40;;;;;;;;;;4979209;28;20597;-60
2022/01/11 07:26:35;;;;;;;36.13;20.50;;;;;;;;;;4995428;28;20219;-60
2022/01/11 07:29:03;;;;;;;45.60;23.10;;;;;;;;;;5012648;28;20653;-60
2022/01/11 07:31:28;;;;;;;40.67;22.83;;;;;;;;;;5013598;28;20250;-59
2022/01/11 07:33:54;;;;;;;44.30;22.90;;;;;;;;;;5012289;28;20204;-60
2022/01/11 07:36:19;;;;;;;44.60;23.13;;;;;;;;;;4995513;28;20213;-60
2022/01/11 07:38:44;;;;;;;35.87;20.30;;;;;;;;;;5013276;28;20570;-60
2022/01/11 07:41:10;;;;;;;41.77;21.90;;;;;;;;;;5011970;28;20642;-60
2022/01/11 07:43:35;;;;;;;43.47;22.67;;;;;;;;;;5013039;28;20212;-60
2022/01/11 07:46:00;;;;;;;36.97;21.10;;;;;;;;;;5012853;28;20743;-60
2022/01/11 07:48:25;;;;;;;37.77;20.43;;;;;;;;;;4992193;28;20233;-60
2022/01/11 07:50:51;;;;;;;31.87;18.90;;;;;;;;;;4993515;28;20725;-60
2022/01/11 07:53:16;;;;;;;34.77;19.10;;;;;;;;;;4975225;28;20217;-60
2022/01/11 07:55:41;;;;;;;33.10;21.15;;;;;;;;;;4992171;28;20832;-60
2022/01/11 07:58:07;;;;;;;37.50;25.43;;;;;;;;;;4992832;28;20302;-62
2022/01/11 08:00:32;;;;;;;33.07;21.47;;;;;;;;;;4998685;28;20427;-60
2022/01/11 08:02:57;;;;;;;35.70;19.10;;;;;;;;;;4992340;28;20220;-60
2022/01/11 08:05:22;;;;;;;30.87;18.03;;;;;;;;;;4992767;28;20569;-60
2022/01/11 08:07:48;;;;;;;30.37;18.63;;;;;;;;;;4975863;28;20224;-60
2022/01/11 08:10:17;;;;;;;33.27;20.37;;;;;;;;;;4991995;28;20233;-61
2022/01/11 08:12:42;;;;;;;29.80;18.13;;;;;;;;;;4991865;28;20213;-60
2022/01/11 08:15:07;;;;;;;27.10;17.73;;;;;;;;;;4991614;28;20295;-60
2022/01/11 08:17:33;;;;;;;27.53;18.00;;;;;;;;;;4992239;28;20567;-60
2022/01/11 08:19:58;;;;;;;30.33;17.87;;;;;;;;;;4975491;28;20256;-60
2022/01/11 08:22:25;;;;;;;26.60;16.40;;;;;;;;;;5002057;28;20216;-60
2022/01/11 08:24:50;;;;;;;30.40;17.10;;;;;;;;;;5014406;28;20236;-60
2022/01/11 08:27:16;;;;;;;30.57;18.00;;;;;;;;;;5031337;28;20211;-60
2022/01/11 08:29:42;;;;;;;27.03;16.53;;;;;;;;;;5011412;28;20216;-59
2022/01/11 08:32:07;;;;;;;27.57;16.60;;;;;;;;;;5011452;28;20707;-60
2022/01/11 08:34:33;;;;;;;27.27;16.57;;;;;;;;;;5012442;28;20263;-60
2022/01/11 08:36:58;;;;;;;32.57;18.33;;;;;;;;;;5010795;28;20204;-60
2022/01/11 08:39:24;;;;;;;28.83;17.60;;;;;;;;;;4994481;28;20216;-59
2022/01/11 08:41:49;;;;;;;34.80;18.53;;;;;;;;;;4994407;28;20299;-59
2022/01/11 08:44:14;;;;;;;34.13;18.53;;;;;;;;;;5050418;28;20297;-59
2022/01/11 08:46:41;;;;;;;34.13;17.37;;;;;;;;;;5072224;28;20214;-60
2022/01/11 08:49:07;;;;;;;34.50;18.23;;;;;;;;;;5071349;28;20261;-60
2022/01/11 08:51:32;;;;;;;30.03;17.20;;;;;;;;;;5069848;28;20234;-59
2022/01/11 08:53:57;;;;;;;31.77;17.67;;;;;;;;;;5071822;28;20225;-60
2022/01/11 08:56:23;;;;;;;35.93;17.93;;;;;;;;;;5071716;28;20214;-59
2022/01/11 08:58:48;;;;;;;30.80;17.93;;;;;;;;;;5070827;28;20203;-59
2022/01/11 09:01:13;;;;;;;30.10;16.00;;;;;;;;;;5060430;28;20219;-59
2022/01/11 09:03:39;;;;;;;34.57;17.90;;;;;;;;;;5050724;28;20221;-60
2022/01/11 09:06:08;;;;;;;29.80;16.20;;;;;;;;;;5054081;28;20215;-60
2022/01/11 09:08:34;;;;;;;32.83;17.33;;;;;;;;;;5055714;28;20223;-60
2022/01/11 09:10:59;;;;;;;32.27;16.87;;;;;;;;;;5055665;28;20207;-60
2022/01/11 09:13:26;;;;;;;30.87;17.43;;;;;;;;;;5054325;28;20719;-60
2022/01/11 09:15:51;;;;;;;33.07;17.93;;;;;;;;;;5053481;28;20286;-59
2022/01/11 09:18:16;;;;;;;37.00;19.03;;;;;;;;;;5035175;28;20261;-59
2022/01/11 09:20:42;;;;;;;35.37;18.03;;;;;;;;;;5033514;28;20663;-60
2022/01/11 09:23:07;;;;;;;31.93;18.23;;;;;;;;;;5048230;28;20211;-60
2022/01/11 09:25:33;;;;;;;35.40;18.53;;;;;;;;;;5051695;28;20253;-60
2022/01/11 09:27:58;;;;;;;32.77;17.80;;;;;;;;;;5055584;28;20235;-59
2022/01/11 09:30:23;;;;;;;33.60;19.07;;;;;;;;;;5053007;28;20314;-59
2022/01/11 09:32:49;;;;;;;37.63;18.40;;;;;;;;;;5053231;28;20219;-59
2022/01/11 09:35:14;;;;;;;31.03;17.10;;;;;;;;;;5051723;28;20216;-60
2022/01/11 09:37:40;;;;;;;31.83;17.93;;;;;;;;;;5041462;28;20215;-59
2022/01/11 09:40:06;;;;;;;32.63;18.30;;;;;;;;;;5034286;28;20211;-60
2022/01/11 09:42:31;;;;;;;33.43;17.80;;;;;;;;;;5035383;28;20220;-59
2022/01/11 09:44:58;;;;;;;31.97;17.57;;;;;;;;;;5026428;28;20319;-59
2022/01/11 09:47:24;;;;;;;32.50;18.13;;;;;;;;;;5013816;28;20664;-60
2022/01/11 09:49:49;;;;;;;34.43;17.43;;;;;;;;;;5015110;28;20234;-59
2022/01/11 09:52:14;;;;;;;32.30;17.60;;;;;;;;;;5014256;28;20280;-60
2022/01/11 09:54:40;;;;;;;32.83;17.10;;;;;;;;;;4997072;28;20699;-59
2022/01/11 09:57:06;;;;;;;29.93;16.43;;;;;;;;;;5014643;28;20296;-59
2022/01/11 09:59:31;;;;;;;31.67;17.57;;;;;;;;;;5016471;28;20294;-59
2022/01/11 10:01:57;;;;;;;32.83;20.00;;;;;;;;;;5025479;28;20433;-59
2022/01/11 10:04:23;;;;;;;33.20;18.40;;;;;;;;;;5029672;28;20212;-59
2022/01/11 10:06:56;;;;;;;32.97;18.57;;;;;;;;;;5034416;28;20208;-59
2022/01/11 10:09:21;;;;;;;35.17;18.90;;;;;;;;;;5033285;28;20667;-61
2022/01/11 10:11:48;;;;;;;34.97;20.52;;;;;;;;;;5032781;28;20406;-60
2022/01/11 10:14:20;;;;;;;34.20;18.90;;;;;;;;;;5034082;28;20223;-59
2022/01/11 10:16:45;;;;;;;31.67;17.93;;;;;;;;;;5033741;28;20663;-60
2022/01/11 10:19:18;;;;;;;35.60;18.37;;;;;;;;;;5033940;28;20637;-59
2022/01/11 10:21:43;;;;;;;35.30;18.40;;;;;;;;;;5032273;28;20682;-59
2022/01/11 10:24:22;;;;;;;33.57;18.00;;;;;;;;;;5013391;28;20213;-60
2022/01/11 10:26:47;;;;;;;33.67;18.40;;;;;;;;;;5012607;28;20219;-60
2022/01/11 10:29:37;;;;;;;34.00;18.73;;;;;;;;;;5008375;28;20236;-61
2022/01/11 10:32:09;;;;;;;33.20;17.23;;;;;;;;;;5009595;28;20278;-59
2022/01/11 10:34:35;;;;;;;37.13;18.13;;;;;;;;;;5013863;28;20209;-60
2022/01/11 10:37:01;;;;;;;40.87;19.37;;;;;;;;;;5013487;28;20226;-59
2022/01/11 10:39:29;;;;;;;36.40;18.80;;;;;;;;;;5012717;28;20212;-59
2022/01/11 10:41:54;;;;;;;34.37;18.50;;;;;;;;;;5015094;28;20219;-60
2022/01/11 10:44:38;;;;;;;37.17;18.10;;;;;;;;;;5033612;28;20281;-58
2022/01/11 10:47:04;;;;;;;30.07;17.50;;;;;;;;;;5053288;28;20218;-59
2022/01/11 10:49:31;;;;;;;33.47;17.93;;;;;;;;;;5053824;28;20211;-59
2022/01/11 10:52:17;;;;;;;30.97;17.33;;;;;;;;;;5052927;28;20203;-59
2022/01/11 10:54:42;;;;;;;33.63;17.77;;;;;;;;;;5035524;28;20230;-59
2022/01/11 10:57:14;;;;;;;35.73;18.67;;;;;;;;;;5052231;28;20231;-60
2022/01/11 10:59:40;;;;;;;33.73;17.87;;;;;;;;;;5053177;28;20221;-60
2022/01/11 11:02:10;;;;;;;35.83;18.07;;;;;;;;;;5052807;28;20211;-61
2022/01/11 11:04:35;;;;;;;35.87;19.40;;;;;;;;;;5034911;28;20226;-60
2022/01/11 11:07:11;;;;;;;33.53;18.47;;;;;;;;;;5053207;28;20231;-60
2022/01/11 11:09:43;;;;;;;34.40;17.83;;;;;;;;;;5052915;28;20261;-60
2022/01/11 11:12:13;;;;;;;30.87;15.83;;;;;;;;;;5051397;28;20206;-60
2022/01/11 11:14:54;;;;;;;27.97;15.67;;;;;;;;;;5053093;28;20206;-61
2022/01/11 11:17:26;;;;;;;25.30;14.10;;;;;;;;;;5037938;28;20219;-61
2022/01/11 11:19:59;;;;;;;25.27;13.43;;;;;;;;;;5032723;28;20222;-61
2022/01/11 11:22:25;;;;;;;24.33;13.30;;;;;;;;;;5014936;28;20659;-61
2022/01/11 11:24:51;;;;;;;27.93;13.47;;;;;;;;;;5015571;28;20218;-60
2022/01/11 11:27:16;;;;;;;24.07;13.30;;;;;;;;;;5031399;28;20581;-60
2022/01/11 11:29:42;;;;;;;21.43;12.53;;;;;;;;;;5032668;28;20223;-58
2022/01/11 11:32:07;;;;;;;23.97;13.27;;;;;;;;;;5031781;28;20278;-58
2022/01/11 11:34:33;;;;;;;22.97;12.70;;;;;;;;;;5032626;28;20208;-60
2022/01/11 11:37:00;;;;;;;27.43;14.37;;;;;;;;;;5015337;28;20212;-60
2022/01/11 11:39:25;;;;;;;24.47;13.33;;;;;;;;;;5013509;28;20208;-59
2022/01/11 11:41:51;;;;;;;22.27;13.43;;;;;;;;;;5032920;28;20265;-58
2022/01/11 11:44:19;;;;;;;23.33;12.30;;;;;;;;;;5029113;28;20315;-58
2022/01/11 11:46:45;;;;;;;21.73;12.00;;;;;;;;;;5012547;28;20224;-60
2022/01/11 11:49:11;;;;;;;23.43;12.67;;;;;;;;;;5012298;28;20228;-60
2022/01/11 11:51:38;;;;;;;22.33;12.33;;;;;;;;;;5012984;28;20216;-60
2022/01/11 11:54:09;;;;;;;21.90;12.57;;;;;;;;;;5011328;28;20220;-61
2022/01/11 11:56:35;;;;;;;24.57;12.97;;;;;;;;;;4995374;28;20212;-59
2022/01/11 11:59:00;;;;;;;24.52;15.07;;;;;;;;;;5012007;28;20731;-58
2022/01/11 12:01:30;;;;;;;23.73;12.83;;;;;;;;;;5004958;28;20306;-59
2022/01/11 12:03:56;;;;;;;22.97;12.47;;;;;;;;;;5032457;28;20217;-59
2022/01/11 12:06:26;;;;;;;22.17;12.10;;;;;;;;;;5031927;28;20723;-58
2022/01/11 12:08:59;;;;;;;19.13;10.90;;;;;;;;;;5012524;28;20289;-59
2022/01/11 12:11:25;;;;;;;19.33;10.93;;;;;;;;;;5014194;28;20207;-59
2022/01/11 12:13:51;;;;;;;21.23;11.82;;;;;;;;;;5012808;28;20214;-59
2022/01/11 12:16:25;;;;;;;19.63;11.40;;;;;;;;;;5007930;28;20216;-60
2022/01/11 12:18:50;;;;;;;18.60;10.50;;;;;;;;;;5012597;28;20235;-59
2022/01/11 12:21:16;;;;;;;23.37;11.33;;;;;;;;;;5010899;28;20247;-60
2022/01/11 12:23:41;;;;;;;20.43;11.57;;;;;;;;;;5011686;28;20208;-59
2022/01/11 12:26:16;;;;;;;20.57;11.60;;;;;;;;;;5010403;28;20563;-60
2022/01/11 12:28:41;;;;;;;20.10;11.47;;;;;;;;;;4992501;28;20693;-60
2022/01/11 12:31:23;;;;;;;24.00;11.97;;;;;;;;;;5011949;28;20305;-60
2022/01/11 12:33:48;;;;;;;19.40;11.47;;;;;;;;;;4994935;28;20216;-59
2022/01/11 12:36:13;;;;;;;20.47;11.37;;;;;;;;;;5010168;28;20577;-60
2022/01/11 12:38:39;;;;;;;21.87;12.37;;;;;;;;;;5011084;28;20213;-60
2022/01/11 12:41:23;;;;;;;20.33;12.03;;;;;;;;;;4997743;28;20709;-60
2022/01/11 12:43:56;;;;;;;20.27;11.27;;;;;;;;;;5015133;28;20580;-59
2022/01/11 12:46:21;;;;;;;21.83;11.33;;;;;;;;;;5035493;28;20308;-60
2022/01/11 12:48:53;;;;;;;21.60;11.93;;;;;;;;;;5034952;28;20314;-59
2022/01/11 12:51:19;;;;;;;20.23;11.93;;;;;;;;;;5034763;28;20298;-59
2022/01/11 12:53:44;;;;;;;23.60;12.87;;;;;;;;;;5035931;28;20642;-59
2022/01/11 12:56:10;;;;;;;18.90;11.47;;;;;;;;;;5035216;28;20221;-59
2022/01/11 12:58:35;;;;;;;23.53;13.10;;;;;;;;;;5034754;28;20218;-59
2022/01/11 13:01:13;;;;;;;22.53;12.17;;;;;;;;;;5035201;28;20254;-60
2022/01/11 13:03:49;;;;;;;19.05;11.95;;;;;;;;;;5034904;28;20326;-59
2022/01/11 13:06:15;;;;;;;21.47;12.40;;;;;;;;;;5035258;28;20219;-60
2022/01/11 13:08:42;;;;;;;19.77;12.27;;;;;;;;;;5035576;28;20311;-59
2022/01/11 13:11:17;;;;;;;23.70;12.60;;;;;;;;;;5034508;28;20211;-60
2022/01/11 13:13:51;;;;;;;20.37;11.60;;;;;;;;;;5034588;28;20211;-59
2022/01/11 13:16:23;;;;;;;21.60;11.43;;;;;;;;;;5034596;28;20298;-60
2022/01/11 13:18:48;;;;;;;22.37;12.07;;;;;;;;;;5034587;28;20211;-59
2022/01/11 13:21:13;;;;;;;21.53;12.10;;;;;;;;;;5017742;28;20249;-60
2022/01/11 13:23:52;;;;;;;22.17;12.50;;;;;;;;;;5017586;28;20254;-59
2022/01/11 13:26:18;;;;;;;21.20;12.20;;;;;;;;;;5034008;28;20299;-59
2022/01/11 13:28:53;;;;;;;23.10;13.00;;;;;;;;;;5034928;28;20303;-60
2022/01/11 13:31:21;;;;;;;22.67;13.50;;;;;;;;;;5017384;28;20215;-60
2022/01/11 13:33:48;;;;;;;21.20;13.27;;;;;;;;;;5034580;28;20208;-60
2022/01/11 13:36:15;;;;;;;21.15;12.88;;;;;;;;;;5017050;28;20323;-59
2022/01/11 13:38:41;;;;;;;20.07;13.20;;;;;;;;;;5035253;28;20215;-59
2022/01/11 13:41:09;;;;;;;21.20;13.23;;;;;;;;;;5033702;28;20567;-60
2022/01/11 13:43:37;;;;;;;21.53;12.80;;;;;;;;;;5034725;28;20323;-59
2022/01/11 13:46:02;;;;;;;20.40;12.23;;;;;;;;;;5016569;28;20527;-60
2022/01/11 13:48:27;;;;;;;22.17;13.13;;;;;;;;;;4997630;28;20255;-59
2022/01/11 13:50:54;;;;;;;23.40;13.73;;;;;;;;;;5014972;28;20738;-59
2022/01/11 13:53:20;;;;;;;19.92;11.70;;;;;;;;;;4996436;28;20224;-60
2022/01/11 13:55:45;;;;;;;21.43;12.67;;;;;;;;;;5015322;28;20232;-60
2022/01/11 13:58:10;;;;;;;21.07;12.57;;;;;;;;;;5014125;28;20739;-59
2022/01/11 14:00:36;;;;;;;23.70;13.13;;;;;;;;;;5001896;28;20216;-59
2022/01/11 14:03:10;;;;;;;23.43;13.10;;;;;;;;;;5034281;28;20212;-60
2022/01/11 14:05:35;;;;;;;21.27;13.27;;;;;;;;;;5034767;28;20206;-59
2022/01/11 14:08:08;;;;;;;24.57;12.97;;;;;;;;;;5033528;28;20223;-60
2022/01/11 14:10:37;;;;;;;22.17;13.40;;;;;;;;;;5034559;28;20223;-59
2022/01/11 14:13:04;;;;;;;21.00;12.80;;;;;;;;;;5033694;28;20225;-60
2022/01/11 14:15:29;;;;;;;24.77;13.27;;;;;;;;;;5033322;28;20398;-59